sensor_id;sensor_type;location;lat;lon;timestamp;temperature;humidity
2897;DHT22;1458;49.728;9.228;2024-03-06T00:01:45;6.80;99.90
2897;DHT22;1458;49.728;9.228;2024-03-06T00:04:13;6.90;99.90
2897;DHT22;1458;49.728;9.228;2024-03-06T00:06:41;6.80;99.90
2897;DHT22;1458;49.728;9.228;2024-03-06T00:09:08;6.70;99.90
2897;DHT22;1458;49.728;9.228;2024-03-06T00:11:36;6.70;99.90
2897;DHT22;1458;49.728;9.228;2024-03-06T00:14:03;6.70;99.90
2897;DHT22;1458;49.728;9.228;2024-03-06T00:16:31;6.60;99.90
2897;DHT22;1458;49.728;9.228;2024-03-06T00:18:59;6.60;99.90
2897;DHT22;1458;49.728;9.228;2024-03-06T00:21:27;6.70;99.90
2897;DHT22;1458;49.728;9.228;2024-03-06T00:23:55;6.70;99.90
2897;DHT22;1458;49.728;9.228;2024-03-06T00:26:22;6.70;99.90
2897;DHT22;1458;49.728;9.228;2024-03-06T00:28:50;6.70;99.90
2897;DHT22;1458;49.728;9.228;2024-03-06T00:31:17;6.60;99.90
2897;DHT22;1458;49.728;9.228;2024-03-06T00:33:45;6.60;99.90
2897;DHT22;1458;49.728;9.228;2024-03-06T00:36:12;6.60;99.90
2897;DHT22;1458;49.728;9.228;2024-03-06T00:38:41;6.70;99.90
2897;DHT22;1458;49.728;9.228;2024-03-06T00:41:08;6.90;99.90
2897;DHT22;1458;49.728;9.228;2024-03-06T00:43:36;6.80;99.90
2897;DHT22;1458;49.728;9.228;2024-03-06T00:46:03;6.80;99.90
2897;DHT22;1458;49.728;9.228;2024-03-06T00:48:30;6.70;99.90
2897;DHT22;1458;49.728;9.228;2024-03-06T00:50:58;6.80;99.90
2897;DHT22;1458;49.728;9.228;2024-03-06T00:53:26;6.80;99.90
2897;DHT22;1458;49.728;9.228;2024-03-06T00:55:54;6.90;99.90
2897;DHT22;1458;49.728;9.228;2024-03-06T00:58:22;6.90;99.90
2897;DHT22;1458;49.728;9.228;2024-03-06T01:00:49;6.90;99.90
2897;DHT22;1458;49.728;9.228;2024-03-06T01:03:17;6.80;99.90
2897;DHT22;1458;49.728;9.228;2024-03-06T01:05:45;6.80;99.90
2897;DHT22;1458;49.728;9.228;2024-03-06T01:08:13;6.80;99.90
2897;DHT22;1458;49.728;9.228;2024-03-06T01:10:43;6.80;99.90
2897;DHT22;1458;49.728;9.228;2024-03-06T01:13:12;6.80;99.90
2897;DHT22;1458;49.728;9.228;2024-03-06T01:15:39;6.80;99.90
2897;DHT22;1458;49.728;9.228;2024-03-06T01:18:06;6.80;99.90
2897;DHT22;1458;49.728;9.228;2024-03-06T01:20:34;6.80;99.90
2897;DHT22;1458;49.728;9.228;2024-03-06T01:23:02;6.60;99.90
2897;DHT22;1458;49.728;9.228;2024-03-06T01:25:29;6.60;99.90
2897;DHT22;1458;49.728;9.228;2024-03-06T01:27:57;6.60;99.90
2897;DHT22;1458;49.728;9.228;2024-03-06T01:30:26;6.50;99.90
2897;DHT22;1458;49.728;9.228;2024-03-06T01:32:53;6.40;99.90
2897;DHT22;1458;49.728;9.228;2024-03-06T01:35:20;6.30;99.90
2897;DHT22;1458;49.728;9.228;2024-03-06T01:37:49;6.20;99.90
2897;DHT22;1458;49.728;9.228;2024-03-06T01:40:16;6.10;99.90
2897;DHT22;1458;49.728;9.228;2024-03-06T01:42:45;6.00;99.90
2897;DHT22;1458;49.728;9.228;2024-03-06T01:45:14;5.80;99.90
2897;DHT22;1458;49.728;9.228;2024-03-06T01:47:42;5.80;99.90
2897;DHT22;1458;49.728;9.228;2024-03-06T01:50:10;5.70;99.90
2897;DHT22;1458;49.728;9.228;2024-03-06T01:52:39;5.70;99.90
2897;DHT22;1458;49.728;9.228;2024-03-06T01:55:07;5.70;99.90
2897;DHT22;1458;49.728;9.228;2024-03-06T01:57:38;5.60;99.90
2897;DHT22;1458;49.728;9.228;2024-03-06T02:00:08;5.50;99.90
2897;DHT22;1458;49.728;9.228;2024-03-06T02:02:42;5.30;99.90
2897;DHT22;1458;49.728;9.228;2024-03-06T02:05:10;5.30;99.90
2897;DHT22;1458;49.728;9.228;2024-03-06T02:07:39;5.30;99.90
2897;DHT22;1458;49.728;9.228;2024-03-06T02:10:07;5.20;99.90
2897;DHT22;1458;49.728;9.228;2024-03-06T02:12:38;5.10;99.90
2897;DHT22;1458;49.728;9.228;2024-03-06T02:15:07;5.10;99.90
2897;DHT22;1458;49.728;9.228;2024-03-06T02:17:37;5.00;99.90
2897;DHT22;1458;49.728;9.228;2024-03-06T02:20:07;4.90;99.90
2897;DHT22;1458;49.728;9.228;2024-03-06T02:22:39;4.60;99.90
2897;DHT22;1458;49.728;9.228;2024-03-06T02:25:07;4.50;99.90
2897;DHT22;1458;49.728;9.228;2024-03-06T02:27:35;4.40;99.90
2897;DHT22;1458;49.728;9.228;2024-03-06T02:30:03;4.50;99.90
2897;DHT22;1458;49.728;9.228;2024-03-06T02:32:32;4.50;99.90
2897;DHT22;1458;49.728;9.228;2024-03-06T02:35:00;4.60;99.90
2897;DHT22;1458;49.728;9.228;2024-03-06T02:37:29;4.60;99.90
2897;DHT22;1458;49.728;9.228;2024-03-06T02:40:00;4.70;99.90
2897;DHT22;1458;49.728;9.228;2024-03-06T02:42:28;4.80;99.90
2897;DHT22;1458;49.728;9.228;2024-03-06T02:44:56;4.70;99.90
2897;DHT22;1458;49.728;9.228;2024-03-06T02:47:23;4.60;99.90
2897;DHT22;1458;49.728;9.228;2024-03-06T02:49:50;4.60;99.90
2897;DHT22;1458;49.728;9.228;2024-03-06T02:52:18;4.50;99.90
2897;DHT22;1458;49.728;9.228;2024-03-06T02:54:45;4.60;99.90
2897;DHT22;1458;49.728;9.228;2024-03-06T02:57:14;4.50;99.90
2897;DHT22;1458;49.728;9.228;2024-03-06T02:59:42;4.40;99.90
2897;DHT22;1458;49.728;9.228;2024-03-06T03:02:09;4.30;99.90
2897;DHT22;1458;49.728;9.228;2024-03-06T03:04:37;4.20;99.90
2897;DHT22;1458;49.728;9.228;2024-03-06T03:07:04;4.30;99.90
2897;DHT22;1458;49.728;9.228;2024-03-06T03:09:32;4.20;99.90
2897;DHT22;1458;49.728;9.228;2024-03-06T03:12:01;4.30;99.90
2897;DHT22;1458;49.728;9.228;2024-03-06T03:14:30;4.40;99.90
2897;DHT22;1458;49.728;9.228;2024-03-06T03:16:59;4.60;99.90
2897;DHT22;1458;49.728;9.228;2024-03-06T03:19:27;4.80;99.90
2897;DHT22;1458;49.728;9.228;2024-03-06T03:21:55;4.90;99.90
2897;DHT22;1458;49.728;9.228;2024-03-06T03:24:23;4.80;99.90
2897;DHT22;1458;49.728;9.228;2024-03-06T03:26:51;4.70;99.90
2897;DHT22;1458;49.728;9.228;2024-03-06T03:29:19;4.70;99.90
2897;DHT22;1458;49.728;9.228;2024-03-06T03:31:48;4.70;99.90
2897;DHT22;1458;49.728;9.228;2024-03-06T03:34:15;4.80;99.90
2897;DHT22;1458;49.728;9.228;2024-03-06T03:36:43;4.80;99.90
2897;DHT22;1458;49.728;9.228;2024-03-06T03:39:11;5.00;99.90
2897;DHT22;1458;49.728;9.228;2024-03-06T03:41:45;5.00;99.90
2897;DHT22;1458;49.728;9.228;2024-03-06T03:44:13;4.80;99.90
2897;DHT22;1458;49.728;9.228;2024-03-06T03:46:41;4.80;99.90
2897;DHT22;1458;49.728;9.228;2024-03-06T03:49:10;4.80;99.90
2897;DHT22;1458;49.728;9.228;2024-03-06T03:51:38;4.80;99.90
2897;DHT22;1458;49.728;9.228;2024-03-06T03:54:06;4.80;99.90
2897;DHT22;1458;49.728;9.228;2024-03-06T03:56:33;4.80;99.90
2897;DHT22;1458;49.728;9.228;2024-03-06T03:59:01;4.70;99.90
2897;DHT22;1458;49.728;9.228;2024-03-06T04:01:28;4.80;99.90
2897;DHT22;1458;49.728;9.228;2024-03-06T04:03:56;4.90;99.90
2897;DHT22;1458;49.728;9.228;2024-03-06T04:06:25;5.00;99.90
2897;DHT22;1458;49.728;9.228;2024-03-06T04:08:52;5.10;99.90
2897;DHT22;1458;49.728;9.228;2024-03-06T04:11:19;5.10;99.90
2897;DHT22;1458;49.728;9.228;2024-03-06T04:13:48;5.10;99.90
2897;DHT22;1458;49.728;9.228;2024-03-06T04:16:16;5.30;99.90
2897;DHT22;1458;49.728;9.228;2024-03-06T04:18:44;5.30;99.90
2897;DHT22;1458;49.728;9.228;2024-03-06T04:21:12;5.20;99.90
2897;DHT22;1458;49.728;9.228;2024-03-06T04:23:43;5.10;99.90
2897;DHT22;1458;49.728;9.228;2024-03-06T04:26:10;5.20;99.90
2897;DHT22;1458;49.728;9.228;2024-03-06T04:28:38;5.20;99.90
2897;DHT22;1458;49.728;9.228;2024-03-06T04:31:05;5.10;99.90
2897;DHT22;1458;49.728;9.228;2024-03-06T04:33:33;5.10;99.90
2897;DHT22;1458;49.728;9.228;2024-03-06T04:36:01;5.10;99.90
2897;DHT22;1458;49.728;9.228;2024-03-06T04:38:29;5.20;99.90
2897;DHT22;1458;49.728;9.228;2024-03-06T04:40:57;5.20;99.90
2897;DHT22;1458;49.728;9.228;2024-03-06T04:43:25;5.10;99.90
2897;DHT22;1458;49.728;9.228;2024-03-06T04:45:52;5.10;99.90
2897;DHT22;1458;49.728;9.228;2024-03-06T04:48:20;5.10;99.90
2897;DHT22;1458;49.728;9.228;2024-03-06T04:50:47;5.10;99.90
2897;DHT22;1458;49.728;9.228;2024-03-06T04:53:15;5.10;99.90
2897;DHT22;1458;49.728;9.228;2024-03-06T04:55:42;5.00;99.90
2897;DHT22;1458;49.728;9.228;2024-03-06T04:58:11;5.00;99.90
2897;DHT22;1458;49.728;9.228;2024-03-06T05:00:39;4.90;99.90
2897;DHT22;1458;49.728;9.228;2024-03-06T05:03:06;4.80;99.90
2897;DHT22;1458;49.728;9.228;2024-03-06T05:05:33;4.90;99.90
2897;DHT22;1458;49.728;9.228;2024-03-06T05:08:01;4.90;99.90
2897;DHT22;1458;49.728;9.228;2024-03-06T05:10:29;5.00;99.90
2897;DHT22;1458;49.728;9.228;2024-03-06T05:12:56;5.10;99.90
2897;DHT22;1458;49.728;9.228;2024-03-06T05:15:25;5.00;99.90
2897;DHT22;1458;49.728;9.228;2024-03-06T05:17:53;5.00;99.90
2897;DHT22;1458;49.728;9.228;2024-03-06T05:20:21;5.10;99.90
2897;DHT22;1458;49.728;9.228;2024-03-06T05:22:49;5.20;99.90
2897;DHT22;1458;49.728;9.228;2024-03-06T05:25:16;5.10;99.90
2897;DHT22;1458;49.728;9.228;2024-03-06T05:27:44;4.90;99.90
2897;DHT22;1458;49.728;9.228;2024-03-06T05:30:11;4.80;99.90
2897;DHT22;1458;49.728;9.228;2024-03-06T05:32:41;4.80;99.90
2897;DHT22;1458;49.728;9.228;2024-03-06T05:35:09;4.90;99.90
2897;DHT22;1458;49.728;9.228;2024-03-06T05:37:37;4.90;99.90
2897;DHT22;1458;49.728;9.228;2024-03-06T05:40:06;4.90;99.90
2897;DHT22;1458;49.728;9.228;2024-03-06T05:42:35;4.80;99.90
2897;DHT22;1458;49.728;9.228;2024-03-06T05:45:02;4.90;99.90
2897;DHT22;1458;49.728;9.228;2024-03-06T05:47:31;4.80;99.90
2897;DHT22;1458;49.728;9.228;2024-03-06T05:50:00;4.90;99.90
2897;DHT22;1458;49.728;9.228;2024-03-06T05:52:30;4.90;99.90
2897;DHT22;1458;49.728;9.228;2024-03-06T05:54:57;4.90;99.90
2897;DHT22;1458;49.728;9.228;2024-03-06T05:57:25;4.90;99.90
2897;DHT22;1458;49.728;9.228;2024-03-06T05:59:53;4.80;99.90
2897;DHT22;1458;49.728;9.228;2024-03-06T06:02:20;4.90;99.90
2897;DHT22;1458;49.728;9.228;2024-03-06T06:04:48;4.80;99.90
2897;DHT22;1458;49.728;9.228;2024-03-06T06:07:17;4.90;99.90
2897;DHT22;1458;49.728;9.228;2024-03-06T06:09:45;5.10;99.90
2897;DHT22;1458;49.728;9.228;2024-03-06T06:12:12;5.10;99.90
2897;DHT22;1458;49.728;9.228;2024-03-06T06:14:39;5.00;99.90
2897;DHT22;1458;49.728;9.228;2024-03-06T06:17:07;4.90;99.90
2897;DHT22;1458;49.728;9.228;2024-03-06T06:19:34;4.80;99.90
2897;DHT22;1458;49.728;9.228;2024-03-06T06:22:01;4.90;99.90
2897;DHT22;1458;49.728;9.228;2024-03-06T06:24:30;5.00;99.90
2897;DHT22;1458;49.728;9.228;2024-03-06T06:26:57;5.00;99.90
2897;DHT22;1458;49.728;9.228;2024-03-06T06:29:25;5.00;99.90
2897;DHT22;1458;49.728;9.228;2024-03-06T06:31:52;5.00;99.90
2897;DHT22;1458;49.728;9.228;2024-03-06T06:34:19;5.00;99.90
2897;DHT22;1458;49.728;9.228;2024-03-06T06:36:47;5.10;99.90
2897;DHT22;1458;49.728;9.228;2024-03-06T06:39:14;5.10;99.90
2897;DHT22;1458;49.728;9.228;2024-03-06T06:41:43;5.10;99.90
2897;DHT22;1458;49.728;9.228;2024-03-06T06:44:11;5.10;99.90
2897;DHT22;1458;49.728;9.228;2024-03-06T06:46:39;5.10;99.90
2897;DHT22;1458;49.728;9.228;2024-03-06T06:49:06;5.20;99.90
2897;DHT22;1458;49.728;9.228;2024-03-06T06:51:34;5.20;99.90
2897;DHT22;1458;49.728;9.228;2024-03-06T06:54:02;5.30;99.90
2897;DHT22;1458;49.728;9.228;2024-03-06T06:56:30;5.30;99.90
2897;DHT22;1458;49.728;9.228;2024-03-06T06:58:59;5.40;99.90
2897;DHT22;1458;49.728;9.228;2024-03-06T07:01:26;5.50;99.90
2897;DHT22;1458;49.728;9.228;2024-03-06T07:03:54;5.50;99.90
2897;DHT22;1458;49.728;9.228;2024-03-06T07:06:21;5.50;99.90
2897;DHT22;1458;49.728;9.228;2024-03-06T07:08:50;5.70;99.90
2897;DHT22;1458;49.728;9.228;2024-03-06T07:11:18;5.70;99.90
2897;DHT22;1458;49.728;9.228;2024-03-06T07:13:46;5.70;99.90
2897;DHT22;1458;49.728;9.228;2024-03-06T07:16:14;5.90;99.90
2897;DHT22;1458;49.728;9.228;2024-03-06T07:18:42;6.00;99.90
2897;DHT22;1458;49.728;9.228;2024-03-06T07:21:09;6.00;99.90
2897;DHT22;1458;49.728;9.228;2024-03-06T07:23:37;6.00;99.90
2897;DHT22;1458;49.728;9.228;2024-03-06T07:26:04;6.00;99.90
2897;DHT22;1458;49.728;9.228;2024-03-06T07:28:31;6.10;99.90
2897;DHT22;1458;49.728;9.228;2024-03-06T07:30:59;6.30;99.90
2897;DHT22;1458;49.728;9.228;2024-03-06T07:33:28;6.40;99.90
2897;DHT22;1458;49.728;9.228;2024-03-06T07:35:55;6.70;99.90
2897;DHT22;1458;49.728;9.228;2024-03-06T07:38:22;6.60;99.90
2897;DHT22;1458;49.728;9.228;2024-03-06T07:40:50;6.70;99.90
2897;DHT22;1458;49.728;9.228;2024-03-06T07:43:17;6.80;99.90
2897;DHT22;1458;49.728;9.228;2024-03-06T07:45:45;6.80;99.90
2897;DHT22;1458;49.728;9.228;2024-03-06T07:48:13;6.80;99.90
2897;DHT22;1458;49.728;9.228;2024-03-06T07:50:42;6.80;99.90
2897;DHT22;1458;49.728;9.228;2024-03-06T07:53:12;6.90;99.90
2897;DHT22;1458;49.728;9.228;2024-03-06T07:55:40;6.90;99.90
2897;DHT22;1458;49.728;9.228;2024-03-06T07:58:07;7.00;99.90
2897;DHT22;1458;49.728;9.228;2024-03-06T08:00:35;7.20;99.90
2897;DHT22;1458;49.728;9.228;2024-03-06T08:03:02;7.10;99.90
2897;DHT22;1458;49.728;9.228;2024-03-06T08:05:30;7.20;99.90
2897;DHT22;1458;49.728;9.228;2024-03-06T08:08:00;7.20;99.90
2897;DHT22;1458;49.728;9.228;2024-03-06T08:10:28;7.10;99.90
2897;DHT22;1458;49.728;9.228;2024-03-06T08:12:57;7.00;99.90
2897;DHT22;1458;49.728;9.228;2024-03-06T08:15:24;7.00;99.90
2897;DHT22;1458;49.728;9.228;2024-03-06T08:17:51;7.00;99.90
2897;DHT22;1458;49.728;9.228;2024-03-06T08:20:19;7.00;99.90
2897;DHT22;1458;49.728;9.228;2024-03-06T08:22:46;7.20;99.90
2897;DHT22;1458;49.728;9.228;2024-03-06T08:25:15;7.40;99.90
2897;DHT22;1458;49.728;9.228;2024-03-06T08:27:43;7.50;99.90
2897;DHT22;1458;49.728;9.228;2024-03-06T08:30:10;7.60;99.90
2897;DHT22;1458;49.728;9.228;2024-03-06T08:32:38;7.80;99.90
2897;DHT22;1458;49.728;9.228;2024-03-06T08:35:08;8.00;99.90
2897;DHT22;1458;49.728;9.228;2024-03-06T08:37:37;8.10;99.90
2897;DHT22;1458;49.728;9.228;2024-03-06T08:40:05;8.20;99.90
2897;DHT22;1458;49.728;9.228;2024-03-06T08:42:37;8.50;99.90
2897;DHT22;1458;49.728;9.228;2024-03-06T08:45:05;8.60;99.90
2897;DHT22;1458;49.728;9.228;2024-03-06T08:47:33;8.50;99.90
2897;DHT22;1458;49.728;9.228;2024-03-06T08:50:01;8.40;99.90
2897;DHT22;1458;49.728;9.228;2024-03-06T08:52:29;8.30;99.90
2897;DHT22;1458;49.728;9.228;2024-03-06T08:54:56;8.70;99.90
2897;DHT22;1458;49.728;9.228;2024-03-06T08:57:24;8.60;99.90
2897;DHT22;1458;49.728;9.228;2024-03-06T08:59:55;8.70;99.90
2897;DHT22;1458;49.728;9.228;2024-03-06T09:02:22;8.80;99.90
2897;DHT22;1458;49.728;9.228;2024-03-06T09:04:51;8.50;99.90
2897;DHT22;1458;49.728;9.228;2024-03-06T09:07:19;8.60;99.90
2897;DHT22;1458;49.728;9.228;2024-03-06T09:09:49;8.50;99.90
2897;DHT22;1458;49.728;9.228;2024-03-06T09:12:17;8.50;99.90
2897;DHT22;1458;49.728;9.228;2024-03-06T09:14:45;8.40;99.90
2897;DHT22;1458;49.728;9.228;2024-03-06T09:17:14;8.50;99.90
2897;DHT22;1458;49.728;9.228;2024-03-06T09:19:41;8.50;99.90
2897;DHT22;1458;49.728;9.228;2024-03-06T09:22:10;8.50;99.90
2897;DHT22;1458;49.728;9.228;2024-03-06T09:24:37;8.50;99.90
2897;DHT22;1458;49.728;9.228;2024-03-06T09:27:05;8.50;99.70
2897;DHT22;1458;49.728;9.228;2024-03-06T09:29:33;8.50;99.20
2897;DHT22;1458;49.728;9.228;2024-03-06T09:32:00;8.40;98.50
2897;DHT22;1458;49.728;9.228;2024-03-06T09:34:29;8.20;99.90
2897;DHT22;1458;49.728;9.228;2024-03-06T09:36:56;8.30;99.90
2897;DHT22;1458;49.728;9.228;2024-03-06T09:39:24;8.70;99.90
2897;DHT22;1458;49.728;9.228;2024-03-06T09:41:51;9.00;99.60
2897;DHT22;1458;49.728;9.228;2024-03-06T09:44:20;9.30;96.30
2897;DHT22;1458;49.728;9.228;2024-03-06T09:46:49;9.50;94.70
2897;DHT22;1458;49.728;9.228;2024-03-06T09:49:17;9.40;94.50
2897;DHT22;1458;49.728;9.228;2024-03-06T09:51:48;9.30;94.50
2897;DHT22;1458;49.728;9.228;2024-03-06T09:54:16;9.30;95.40
2897;DHT22;1458;49.728;9.228;2024-03-06T09:56:44;9.60;94.40
2897;DHT22;1458;49.728;9.228;2024-03-06T09:59:12;9.40;94.40
2897;DHT22;1458;49.728;9.228;2024-03-06T10:01:45;9.50;94.00
2897;DHT22;1458;49.728;9.228;2024-03-06T10:04:19;9.40;94.60
2897;DHT22;1458;49.728;9.228;2024-03-06T10:06:48;9.50;95.00
2897;DHT22;1458;49.728;9.228;2024-03-06T10:09:18;9.40;95.10
2897;DHT22;1458;49.728;9.228;2024-03-06T10:11:45;9.10;94.50
2897;DHT22;1458;49.728;9.228;2024-03-06T10:14:14;9.10;95.60
2897;DHT22;1458;49.728;9.228;2024-03-06T10:16:52;9.20;96.20
2897;DHT22;1458;49.728;9.228;2024-03-06T10:19:22;9.20;95.90
2897;DHT22;1458;49.728;9.228;2024-03-06T10:21:52;9.30;96.40
2897;DHT22;1458;49.728;9.228;2024-03-06T10:24:20;9.40;96.70
2897;DHT22;1458;49.728;9.228;2024-03-06T10:26:49;9.30;96.70
2897;DHT22;1458;49.728;9.228;2024-03-06T10:29:20;9.10;95.60
2897;DHT22;1458;49.728;9.228;2024-03-06T10:31:51;9.10;95.60
2897;DHT22;1458;49.728;9.228;2024-03-06T10:34:20;9.10;95.60
2897;DHT22;1458;49.728;9.228;2024-03-06T10:36:55;9.30;95.60
2897;DHT22;1458;49.728;9.228;2024-03-06T10:39:23;9.40;94.40
2897;DHT22;1458;49.728;9.228;2024-03-06T10:41:53;9.60;94.50
2897;DHT22;1458;49.728;9.228;2024-03-06T10:44:22;9.70;94.50
2897;DHT22;1458;49.728;9.228;2024-03-06T10:46:55;10.00;94.30
2897;DHT22;1458;49.728;9.228;2024-03-06T10:49:26;9.90;92.80
2897;DHT22;1458;49.728;9.228;2024-03-06T10:52:00;9.60;92.60
2897;DHT22;1458;49.728;9.228;2024-03-06T10:54:30;9.50;94.70
2897;DHT22;1458;49.728;9.228;2024-03-06T10:56:58;9.50;94.50
2897;DHT22;1458;49.728;9.228;2024-03-06T10:59:26;9.30;93.90
2897;DHT22;1458;49.728;9.228;2024-03-06T11:01:55;9.40;95.00
2897;DHT22;1458;49.728;9.228;2024-03-06T11:04:25;9.70;95.10
2897;DHT22;1458;49.728;9.228;2024-03-06T11:06:54;9.70;94.90
2897;DHT22;1458;49.728;9.228;2024-03-06T11:09:23;9.90;93.70
2897;DHT22;1458;49.728;9.228;2024-03-06T11:11:51;9.80;93.40
2897;DHT22;1458;49.728;9.228;2024-03-06T11:14:21;9.70;93.10
2897;DHT22;1458;49.728;9.228;2024-03-06T11:17:01;9.60;93.60
2897;DHT22;1458;49.728;9.228;2024-03-06T11:19:29;9.70;95.60
2897;DHT22;1458;49.728;9.228;2024-03-06T11:21:58;9.80;95.40
2897;DHT22;1458;49.728;9.228;2024-03-06T11:24:33;9.80;94.20
2897;DHT22;1458;49.728;9.228;2024-03-06T11:27:02;9.70;93.90
2897;DHT22;1458;49.728;9.228;2024-03-06T11:30:04;9.90;95.50
2897;DHT22;1458;49.728;9.228;2024-03-06T11:32:37;10.30;93.00
2897;DHT22;1458;49.728;9.228;2024-03-06T11:35:05;10.40;92.50
2897;DHT22;1458;49.728;9.228;2024-03-06T11:37:34;10.60;94.10
2897;DHT22;1458;49.728;9.228;2024-03-06T11:40:06;10.90;91.50
2897;DHT22;1458;49.728;9.228;2024-03-06T11:42:37;11.00;90.20
2897;DHT22;1458;49.728;9.228;2024-03-06T11:45:13;11.00;90.00
2897;DHT22;1458;49.728;9.228;2024-03-06T11:48:01;11.10;90.00
2897;DHT22;1458;49.728;9.228;2024-03-06T11:50:29;11.00;87.00
2897;DHT22;1458;49.728;9.228;2024-03-06T11:52:57;10.90;88.10
2897;DHT22;1458;49.728;9.228;2024-03-06T11:55:26;10.90;90.50
2897;DHT22;1458;49.728;9.228;2024-03-06T11:57:53;11.10;87.70
2897;DHT22;1458;49.728;9.228;2024-03-06T12:00:21;11.10;85.00
2897;DHT22;1458;49.728;9.228;2024-03-06T12:02:50;11.00;88.70
2897;DHT22;1458;49.728;9.228;2024-03-06T12:05:18;10.80;88.50
2897;DHT22;1458;49.728;9.228;2024-03-06T12:07:46;10.80;90.00
2897;DHT22;1458;49.728;9.228;2024-03-06T12:10:15;10.80;87.90
2897;DHT22;1458;49.728;9.228;2024-03-06T12:12:45;10.70;90.70
2897;DHT22;1458;49.728;9.228;2024-03-06T12:15:14;10.60;91.90
2897;DHT22;1458;49.728;9.228;2024-03-06T12:17:44;10.40;92.20
2897;DHT22;1458;49.728;9.228;2024-03-06T12:20:13;10.20;94.00
2897;DHT22;1458;49.728;9.228;2024-03-06T12:22:47;10.10;95.70
2897;DHT22;1458;49.728;9.228;2024-03-06T12:25:18;10.00;94.80
2897;DHT22;1458;49.728;9.228;2024-03-06T12:27:48;9.80;94.90
2897;DHT22;1458;49.728;9.228;2024-03-06T12:30:17;9.80;97.90
2897;DHT22;1458;49.728;9.228;2024-03-06T12:32:56;9.90;98.20
2897;DHT22;1458;49.728;9.228;2024-03-06T12:35:27;9.80;98.30
2897;DHT22;1458;49.728;9.228;2024-03-06T12:37:54;9.80;98.90
2897;DHT22;1458;49.728;9.228;2024-03-06T12:40:22;9.80;99.90
2897;DHT22;1458;49.728;9.228;2024-03-06T12:42:51;9.70;99.90
2897;DHT22;1458;49.728;9.228;2024-03-06T12:45:19;9.70;99.90
2897;DHT22;1458;49.728;9.228;2024-03-06T12:47:47;9.70;99.90
2897;DHT22;1458;49.728;9.228;2024-03-06T12:50:15;9.80;99.90
2897;DHT22;1458;49.728;9.228;2024-03-06T12:52:43;9.90;99.90
2897;DHT22;1458;49.728;9.228;2024-03-06T12:55:11;9.90;99.90
2897;DHT22;1458;49.728;9.228;2024-03-06T12:57:39;9.90;99.90
2897;DHT22;1458;49.728;9.228;2024-03-06T13:00:09;10.10;99.90
2897;DHT22;1458;49.728;9.228;2024-03-06T13:02:41;10.10;99.90
2897;DHT22;1458;49.728;9.228;2024-03-06T13:05:09;10.30;98.30
2897;DHT22;1458;49.728;9.228;2024-03-06T13:07:37;10.40;98.30
2897;DHT22;1458;49.728;9.228;2024-03-06T13:10:06;10.60;96.40
2897;DHT22;1458;49.728;9.228;2024-03-06T13:12:36;10.80;95.70
2897;DHT22;1458;49.728;9.228;2024-03-06T13:15:04;11.10;93.00
2897;DHT22;1458;49.728;9.228;2024-03-06T13:17:34;11.20;91.70
2897;DHT22;1458;49.728;9.228;2024-03-06T13:20:02;11.30;92.00
2897;DHT22;1458;49.728;9.228;2024-03-06T13:22:29;11.50;92.50
2897;DHT22;1458;49.728;9.228;2024-03-06T13:24:57;11.50;91.10
2897;DHT22;1458;49.728;9.228;2024-03-06T13:27:25;11.60;91.20
2897;DHT22;1458;49.728;9.228;2024-03-06T13:29:52;11.70;91.00
2897;DHT22;1458;49.728;9.228;2024-03-06T13:32:20;11.70;89.20
2897;DHT22;1458;49.728;9.228;2024-03-06T13:34:53;11.50;90.40
2897;DHT22;1458;49.728;9.228;2024-03-06T13:37:20;11.50;89.00
2897;DHT22;1458;49.728;9.228;2024-03-06T13:39:49;11.30;88.90
2897;DHT22;1458;49.728;9.228;2024-03-06T13:42:18;11.20;89.00
2897;DHT22;1458;49.728;9.228;2024-03-06T13:44:45;11.20;88.80
2897;DHT22;1458;49.728;9.228;2024-03-06T13:47:15;11.20;90.60
2897;DHT22;1458;49.728;9.228;2024-03-06T13:49:43;11.20;88.40
2897;DHT22;1458;49.728;9.228;2024-03-06T13:52:12;11.10;86.30
2897;DHT22;1458;49.728;9.228;2024-03-06T13:54:41;11.10;90.50
2897;DHT22;1458;49.728;9.228;2024-03-06T13:57:09;11.20;89.80
2897;DHT22;1458;49.728;9.228;2024-03-06T13:59:37;11.40;87.00
2897;DHT22;1458;49.728;9.228;2024-03-06T14:02:06;11.70;89.20
2897;DHT22;1458;49.728;9.228;2024-03-06T14:04:33;11.70;88.00
2897;DHT22;1458;49.728;9.228;2024-03-06T14:07:01;11.90;85.60
2897;DHT22;1458;49.728;9.228;2024-03-06T14:09:30;11.80;84.90
2897;DHT22;1458;49.728;9.228;2024-03-06T14:11:57;11.80;82.80
2897;DHT22;1458;49.728;9.228;2024-03-06T14:14:25;11.80;83.10
2897;DHT22;1458;49.728;9.228;2024-03-06T14:16:52;11.80;82.00
2897;DHT22;1458;49.728;9.228;2024-03-06T14:19:19;11.70;83.20
2897;DHT22;1458;49.728;9.228;2024-03-06T14:21:48;11.60;82.40
2897;DHT22;1458;49.728;9.228;2024-03-06T14:24:15;11.50;80.30
2897;DHT22;1458;49.728;9.228;2024-03-06T14:26:44;11.30;80.80
2897;DHT22;1458;49.728;9.228;2024-03-06T14:29:11;11.30;81.40
2897;DHT22;1458;49.728;9.228;2024-03-06T14:31:39;11.40;81.50
2897;DHT22;1458;49.728;9.228;2024-03-06T14:34:06;11.60;80.80
2897;DHT22;1458;49.728;9.228;2024-03-06T14:36:34;11.90;79.20
2897;DHT22;1458;49.728;9.228;2024-03-06T14:39:01;12.00;78.00
2897;DHT22;1458;49.728;9.228;2024-03-06T14:41:29;12.10;78.10
2897;DHT22;1458;49.728;9.228;2024-03-06T14:43:57;12.20;78.80
2897;DHT22;1458;49.728;9.228;2024-03-06T14:46:25;12.20;78.20
2897;DHT22;1458;49.728;9.228;2024-03-06T14:48:52;12.00;79.60
2897;DHT22;1458;49.728;9.228;2024-03-06T14:51:20;11.70;76.70
2897;DHT22;1458;49.728;9.228;2024-03-06T14:53:47;11.40;77.60
2897;DHT22;1458;49.728;9.228;2024-03-06T14:56:15;11.20;78.50
2897;DHT22;1458;49.728;9.228;2024-03-06T14:58:44;11.10;81.10
2897;DHT22;1458;49.728;9.228;2024-03-06T15:01:12;11.00;79.80
2897;DHT22;1458;49.728;9.228;2024-03-06T15:03:42;10.80;79.90
2897;DHT22;1458;49.728;9.228;2024-03-06T15:06:11;10.50;80.80
2897;DHT22;1458;49.728;9.228;2024-03-06T15:08:39;10.40;82.30
2897;DHT22;1458;49.728;9.228;2024-03-06T15:11:06;10.40;83.80
2897;DHT22;1458;49.728;9.228;2024-03-06T15:13:34;10.40;84.50
2897;DHT22;1458;49.728;9.228;2024-03-06T15:16:01;10.30;85.60
2897;DHT22;1458;49.728;9.228;2024-03-06T15:18:32;10.20;85.70
2897;DHT22;1458;49.728;9.228;2024-03-06T15:20:59;10.20;87.10
2897;DHT22;1458;49.728;9.228;2024-03-06T15:23:27;10.20;86.60
2897;DHT22;1458;49.728;9.228;2024-03-06T15:25:54;10.20;86.20
2897;DHT22;1458;49.728;9.228;2024-03-06T15:28:22;10.20;88.00
2897;DHT22;1458;49.728;9.228;2024-03-06T15:30:49;10.30;87.50
2897;DHT22;1458;49.728;9.228;2024-03-06T15:33:17;10.30;88.20
2897;DHT22;1458;49.728;9.228;2024-03-06T15:35:46;10.30;85.90
2897;DHT22;1458;49.728;9.228;2024-03-06T15:38:13;10.40;87.30
2897;DHT22;1458;49.728;9.228;2024-03-06T15:40:40;10.50;86.30
2897;DHT22;1458;49.728;9.228;2024-03-06T15:43:08;10.50;85.30
2897;DHT22;1458;49.728;9.228;2024-03-06T15:45:35;10.50;85.20
2897;DHT22;1458;49.728;9.228;2024-03-06T15:48:03;10.50;86.40
2897;DHT22;1458;49.728;9.228;2024-03-06T15:50:32;10.40;87.80
2897;DHT22;1458;49.728;9.228;2024-03-06T15:53:00;10.40;87.80
2897;DHT22;1458;49.728;9.228;2024-03-06T15:55:29;10.20;88.10
2897;DHT22;1458;49.728;9.228;2024-03-06T15:57:56;10.20;89.20
2897;DHT22;1458;49.728;9.228;2024-03-06T16:00:24;10.20;90.20
2897;DHT22;1458;49.728;9.228;2024-03-06T16:02:51;10.30;88.10
2897;DHT22;1458;49.728;9.228;2024-03-06T16:05:19;10.20;89.60
2897;DHT22;1458;49.728;9.228;2024-03-06T16:07:46;10.10;89.30
2897;DHT22;1458;49.728;9.228;2024-03-06T16:10:15;10.10;90.30
2897;DHT22;1458;49.728;9.228;2024-03-06T16:12:43;10.10;90.70
2897;DHT22;1458;49.728;9.228;2024-03-06T16:15:11;9.90;91.90
2897;DHT22;1458;49.728;9.228;2024-03-06T16:17:38;9.80;92.40
2897;DHT22;1458;49.728;9.228;2024-03-06T16:20:07;9.80;93.00
2897;DHT22;1458;49.728;9.228;2024-03-06T16:22:36;9.80;94.20